Time;durP1;ratioP1;P1;durP2;ratioP2;P2;SDS_P1;SDS_P2;PMS_P1;PMS_P2;Temp;Humidity;BMP_temperature;BMP_pressure;BME280_temperature;BME280_humidity;BME280_pressure;Samples;Min_cycle;Max_cycle;Signal;HPM_P1;HPM_P2
2024/03/12 06:04:40;;;;;;;27.80;14.90;;;;;;;-147.86;100.00;6926.02;102682;1292;600755;-43
2024/03/12 06:07:08;;;;;;;27.40;14.50;;;;;;;-147.86;100.00;-4939.18;104882;1270;59325;-45
2024/03/12 06:09:36;;;;;;;30.20;15.20;;;;;;;-147.86;100.00;-5882.56;105666;1260;60475;-45
2024/03/12 06:12:05;;;;;;;29.80;15.70;;;;;;;-147.86;100.00;-10828.32;105659;1255;70937;-46
2024/03/12 06:14:33;;;;;;;26.90;14.40;;;;;;;-147.86;100.00;-11245.26;105662;1260;64050;-48
2024/03/12 06:17:01;;;;;;;27.70;14.70;;;;;;;-147.86;100.00;-8855.55;105718;1259;71538;-47
2024/03/12 06:19:29;;;;;;;29.10;15.60;;;;;;;-147.86;100.00;-6994.03;105655;1255;249254;-47
2024/03/12 06:21:57;;;;;;;32.00;15.10;;;;;;;-147.86;100.00;-5904.21;105843;1257;60552;-47
2024/03/12 06:24:25;;;;;;;32.90;15.50;;;;;;;-147.86;100.00;-5340.43;105931;1252;72245;-47
2024/03/12 06:26:54;;;;;;;27.60;15.10;;;;;;;-147.86;100.00;-5295.20;105903;1257;63874;-53
2024/03/12 06:29:23;;;;;;;31.50;15.90;;;;;;;-147.86;100.00;-5511.38;105960;1254;71464;-48
2024/03/12 06:31:51;;;;;;;31.00;15.70;;;;;;;-147.86;100.00;-5771.24;105904;1266;59898;-45
2024/03/12 06:34:19;;;;;;;26.90;14.20;;;;;;;-147.86;100.00;-6271.58;105846;1257;59557;-47
2024/03/12 06:36:57;;;;;;;24.60;14.30;;;;;;;-147.86;100.00;-7008.03;105934;1254;73063;-48
2024/03/12 06:39:31;;;;;;;32.20;15.30;;;;;;;-147.86;100.00;-8546.97;105971;1257;65148;-45
2024/03/12 06:42:01;;;;;;;29.50;15.00;;;;;;;-147.86;100.00;-9230.45;105963;1257;71436;-46
2024/03/12 06:44:40;;;;;;;29.50;16.10;;;;;;;-147.86;100.00;-9735.74;105926;1257;59807;-47
2024/03/12 06:47:09;;;;;;;24.10;15.00;;;;;;;-147.86;100.00;-10320.13;105896;1256;59692;-43
2024/03/12 06:49:44;;;;;;;28.50;14.40;;;;;;;-147.86;100.00;-10903.28;105881;1254;71790;-44
2024/03/12 06:52:12;;;;;;;28.00;14.80;;;;;;;-147.86;100.00;-12010.24;105891;1257;67252;-47
2024/03/12 06:54:40;;;;;;;31.10;14.30;;;;;;;-147.86;100.00;-13775.19;105963;1255;70372;-45
2024/03/12 06:57:09;;;;;;;26.90;14.90;;;;;;;-147.86;100.00;-16676.24;105826;1257;60111;-45
2024/03/12 06:59:37;;;;;;;28.40;15.40;;;;;;;-147.86;100.00;-17607.05;105973;1254;59870;-43
2024/03/12 07:02:05;;;;;;;29.70;15.20;;;;;;;-147.86;100.00;-17609.17;105830;1257;71629;-45
2024/03/12 07:04:43;;;;;;;26.80;15.40;;;;;;;-147.86;100.00;-17609.17;105898;1257;65397;-47
2024/03/12 07:07:13;;;;;;;29.70;14.80;;;;;;;-147.86;100.00;-17609.17;105932;1256;70546;-46
2024/03/12 07:09:42;;;;;;;35.30;15.70;;;;;;;-147.86;100.00;-17609.17;105946;1256;63130;-48
2024/03/12 07:12:10;;;;;;;32.20;16.70;;;;;;;-147.86;100.00;-17609.17;105952;1253;59720;-47
2024/03/12 07:14:42;;;;;;;29.30;15.70;;;;;;;-147.86;100.00;-17609.17;105848;1257;75567;-46
2024/03/12 07:17:11;;;;;;;32.10;14.10;;;;;;;-147.86;100.00;-17609.17;105895;1254;64414;-49
2024/03/12 07:19:39;;;;;;;32.40;15.60;;;;;;;-147.86;100.00;-17609.17;105895;1257;71660;-48
2024/03/12 07:22:07;;;;;;;32.20;15.30;;;;;;;-147.86;100.00;-17609.17;105928;1256;59867;-51
2024/03/12 07:24:35;;;;;;;29.10;14.70;;;;;;;-147.86;100.00;-17609.17;105887;1254;60447;-49
2024/03/12 07:27:07;;;;;;;32.00;16.20;;;;;;;-147.86;100.00;-17609.17;105900;1257;73058;-47
2024/03/12 07:29:35;;;;;;;41.50;16.40;;;;;;;-147.86;100.00;-17609.17;105841;1257;65336;-49
2024/03/12 07:32:03;;;;;;;49.30;18.10;;;;;;;-147.86;100.00;-17609.17;105896;1257;75102;-51
2024/03/12 07:34:32;;;;;;;39.10;16.90;;;;;;;-147.86;100.00;-17609.17;105923;1257;61498;-54
2024/03/12 07:37:00;;;;;;;45.10;19.00;;;;;;;-147.86;100.00;-17609.17;105904;1257;59809;-55
2024/03/12 07:39:34;;;;;;;44.50;19.60;;;;;;;-147.86;100.00;-17609.17;105952;1257;74878;-52
2024/03/12 07:42:09;;;;;;;43.30;17.10;;;;;;;-147.86;100.00;-17609.17;105882;1257;64925;-51
2024/03/12 07:44:41;;;;;;;48.50;17.70;;;;;;;-147.86;100.00;-17609.17;105845;1257;73813;-49
2024/03/12 07:47:09;;;;;;;49.50;18.80;;;;;;;-147.86;100.00;-17609.17;105856;1257;59909;-52
2024/03/12 07:49:38;;;;;;;51.40;18.90;;;;;;;-147.86;100.00;-17609.17;105869;1257;59774;-50
2024/03/12 07:52:06;;;;;;;48.50;19.40;;;;;;;-147.86;100.00;-17609.17;105845;1254;73028;-48
2024/03/12 07:54:34;;;;;;;47.30;19.80;;;;;;;-147.86;100.00;-17609.17;105906;1254;64958;-50
2024/03/12 07:57:11;;;;;;;49.40;19.90;;;;;;;-147.86;100.00;-17609.17;105876;1254;73621;-53
2024/03/12 07:59:39;;;;;;;58.90;19.80;;;;;;;-147.86;100.00;-17609.17;105880;1257;63120;-49
2024/03/12 08:02:13;;;;;;;48.50;16.10;;;;;;;-147.86;100.00;-17609.17;105811;1256;59755;-50
2024/03/12 08:04:42;;;;;;;50.70;18.80;;;;;;;-147.86;100.00;-17609.17;105774;1254;73276;-50
2024/03/12 08:07:11;;;;;;;56.80;16.50;;;;;;;-147.86;100.00;-17609.17;105876;1257;66798;-50
2024/03/12 08:09:39;;;;;;;44.40;17.20;;;;;;;-147.86;100.00;-17609.17;105704;1255;73824;-50
2024/03/12 08:12:09;;;;;;;58.90;19.20;;;;;;;-147.86;100.00;-17609.17;105685;1260;59769;-55
2024/03/12 08:14:40;;;;;;;48.50;17.90;;;;;;;-147.86;100.00;-17609.17;105864;1254;59879;-51
2024/03/12 08:17:08;;;;;;;35.90;16.20;;;;;;;-147.86;100.00;-17608.59;105895;1254;72772;-52
2024/03/12 08:19:37;;;;;;;35.90;16.30;;;;;;;-147.86;100.00;-16275.17;105706;1260;66788;-52
2024/03/12 08:22:07;;;;;;;42.50;16.00;;;;;;;-147.86;99.40;-13312.42;105755;1258;73033;-54
2024/03/12 08:24:37;;;;;;;47.40;16.50;;;;;;;-147.86;96.28;-5350.48;105842;1258;60493;-51
2024/03/12 08:27:05;;;;;;;45.80;15.60;;;;;;;-147.86;96.48;-497.14;105882;1254;61062;-49
2024/03/12 08:29:33;;;;;;;34.70;14.20;;;;;;;-147.86;94.37;7441.45;105862;1255;75499;-49
2024/03/12 08:32:01;;;;;;;26.90;12.20;;;;;;;-147.86;92.65;15938.96;105724;1254;64772;-52
2024/03/12 08:34:30;;;;;;;23.70;12.10;;;;;;;-147.86;90.18;33793.52;105835;1255;72938;-49
2024/03/12 08:36:58;;;;;;;24.40;13.30;;;;;;;-147.86;86.47;42466.21;105857;1254;59637;-51
2024/03/12 08:39:27;;;;;;;31.20;13.10;;;;;;;-147.86;84.47;45215.12;105878;1254;62374;-50
2024/03/12 08:41:56;;;;;;;27.80;11.80;;;;;;;-147.86;82.91;45557.94;105707;1259;72482;-50
2024/03/12 08:44:26;;;;;;;20.00;11.70;;;;;;;-147.86;81.43;45593.98;105918;1257;64066;-54
2024/03/12 08:46:54;;;;;;;17.70;11.70;;;;;;;-147.86;80.99;45575.57;105726;1260;73456;-50
2024/03/12 08:49:22;;;;;;;23.20;12.70;;;;;;;-147.86;80.24;45550.49;105912;1254;59637;-47
2024/03/12 08:51:50;;;;;;;18.30;12.00;;;;;;;-147.86;79.59;45485.84;105664;1261;59659;-51
2024/03/12 08:54:19;;;;;;;27.70;12.10;;;;;;;-147.86;79.23;45470.56;105863;1257;73319;-51
2024/03/12 08:56:48;;;;;;;21.80;12.00;;;;;;;-147.86;78.11;45476.45;105828;1257;67270;-51
2024/03/12 08:59:16;;;;;;;25.80;12.10;;;;;;;-147.86;78.51;45479.57;105823;1257;74916;-51
2024/03/12 09:01:44;;;;;;;26.90;11.40;;;;;;;-147.86;77.38;45485.84;105816;1254;59740;-52
2024/03/12 09:04:13;;;;;;;23.10;10.70;;;;;;;-147.86;72.87;45492.51;105834;1257;61263;-52
2024/03/12 09:06:41;;;;;;;28.60;11.30;;;;;;;-147.86;71.52;45519.15;105887;1253;72892;-54
2024/03/12 09:09:09;;;;;;;30.00;11.40;;;;;;;-147.86;71.23;45547.75;105889;1258;65123;-49
2024/03/12 09:11:38;;;;;;;74.80;12.10;;;;;;;-147.86;71.40;45567.73;105847;1257;72590;-52
2024/03/12 09:14:06;;;;;;;23.80;10.90;;;;;;;-147.86;70.85;45579.09;105883;1254;59620;-48
2024/03/12 09:16:34;;;;;;;47.20;11.80;;;;;;;-147.86;70.91;45601.82;105899;1257;59756;-52
2024/03/12 09:19:04;;;;;;;23.10;11.80;;;;;;;-147.86;67.98;45613.57;105945;1253;72751;-48
2024/03/12 09:21:33;;;;;;;27.90;12.60;;;;;;;-147.86;67.03;45637.47;105930;1256;64426;-50
2024/03/12 09:24:02;;;;;;;31.20;13.80;;;;;;;-147.86;66.21;45672.35;105895;1254;72497;-53
2024/03/12 09:26:29;;;;;;;27.40;12.50;;;;;;;-147.86;67.80;45699.38;105844;1257;59654;-50
2024/03/12 09:28:57;;;;;;;29.80;13.70;;;;;;;-147.86;67.17;45712.31;105847;1254;60640;-51
2024/03/12 09:31:25;;;;;;;26.60;13.00;;;;;;;-147.86;63.88;45743.66;105883;1256;75311;-50
2024/03/12 09:33:54;;;;;;;36.20;13.90;;;;;;;-147.86;65.47;45780.10;105891;1254;65004;-52
2024/03/12 09:36:22;;;;;;;28.90;14.10;;;;;;;-147.86;65.93;45800.09;105846;1254;74464;-46
2024/03/12 09:38:51;;;;;;;27.80;13.80;;;;;;;-147.86;66.35;45820.85;105866;1257;59691;-54
2024/03/12 09:41:20;;;;;;;28.60;14.70;;;;;;;-147.86;65.64;45840.84;105949;1254;60836;-51
2024/03/12 09:43:48;;;;;;;34.10;14.80;;;;;;;-147.86;65.19;45871.01;105850;1258;72934;-49
2024/03/12 09:46:16;;;;;;;30.70;14.70;;;;;;;-147.86;65.00;45890.20;105927;1253;63704;-47
2024/03/12 09:48:45;;;;;;;34.70;15.40;;;;;;;-147.86;64.72;45918.81;105740;1257;74778;-49
2024/03/12 09:51:13;;;;;;;30.60;14.90;;;;;;;-147.86;64.65;45937.62;105913;1257;59605;-54
2024/03/12 09:53:42;;;;;;;32.00;14.70;;;;;;;-147.86;64.78;45961.52;105692;1254;60214;-50
2024/03/12 09:56:10;;;;;;;32.70;14.80;;;;;;;-147.86;64.57;46001.10;105887;1257;75713;-52
2024/03/12 09:58:38;;;;;;;34.10;15.30;;;;;;;-147.86;64.15;46000.71;105944;1257;64271;-51
2024/03/12 10:01:06;;;;;;;34.30;13.70;;;;;;;-147.86;62.78;46033.23;105847;1257;74985;-51
2024/03/12 10:03:37;;;;;;;22.30;13.10;;;;;;;-147.86;60.25;46083.20;105850;1257;59761;-51
2024/03/12 10:06:06;;;;;;;27.00;14.30;;;;;;;-147.86;59.01;46138.25;105874;1256;59660;-56
2024/03/12 10:08:34;;;;;;;29.30;15.60;;;;;;;-147.86;60.44;46174.69;105914;1252;73835;-53
2024/03/12 10:11:07;;;;;;;31.60;13.80;;;;;;;-147.86;61.14;46193.90;105905;1256;65546;-49
2024/03/12 10:13:40;;;;;;;39.60;14.10;;;;;;;-147.86;58.48;46225.25;105852;1254;73004;-49
2024/03/12 10:16:08;;;;;;;32.30;13.90;;;;;;;-147.86;56.18;46306.76;105901;1256;61247;-52
2024/03/12 10:18:39;;;;;;;33.30;14.90;;;;;;;-147.86;56.24;46346.34;105872;1257;60866;-50
2024/03/12 11:27:20;;;;;;;26.60;13.70;;;;;;;-147.86;48.36;47410.88;102600;1293;613198;-48
2024/03/12 11:30:04;;;;;;;25.70;14.00;;;;;;;-147.86;48.29;47684.47;104718;1269;167822;-48
2024/03/12 11:32:43;;;;;;;28.90;15.10;;;;;;;-147.86;48.82;47726.02;104842;1267;59258;-49
2024/03/12 11:35:18;;;;;;;24.20;13.50;;;;;;;-147.86;49.24;47757.78;104876;1267;74487;-48
2024/03/12 11:37:58;;;;;;;30.50;13.80;;;;;;;-147.86;49.73;47760.52;104851;1270;67505;-48
2024/03/12 11:40:31;;;;;;;28.80;13.30;;;;;;;-147.86;50.27;47765.23;104835;1270;71134;-48
2024/03/12 11:42:59;;;;;;;35.80;14.20;;;;;;;-147.86;50.67;47772.68;104869;1270;59461;-46
2024/03/12 11:45:45;;;;;;;28.90;13.10;;;;;;;-147.86;50.73;47776.99;104832;1269;60946;-48
2024/03/12 11:48:21;;;;;;;31.80;13.20;;;;;;;-147.86;49.96;47794.63;104868;1267;70792;-47
2024/03/12 11:50:54;;;;;;;33.20;14.40;;;;;;;-147.86;50.87;47793.06;104912;1270;65687;-45
2024/03/12 11:53:22;;;;;;;29.20;13.50;;;;;;;-147.86;51.45;47804.82;105663;1261;71448;-47
2024/03/12 11:55:55;;;;;;;31.80;13.50;;;;;;;-147.86;51.62;47807.18;105647;1260;59747;-49
2024/03/12 11:58:49;;;;;;;25.70;12.90;;;;;;;-147.86;51.45;47802.08;105652;1255;59961;-50
2024/03/12 12:01:21;;;;;;;26.80;12.70;;;;;;;-147.86;51.33;47812.66;105630;1258;72834;-46
2024/03/12 12:03:56;;;;;;;45.30;13.70;;;;;;;-147.86;52.74;47809.92;105644;1255;63734;-49
2024/03/12 12:06:30;;;;;;;25.30;12.10;;;;;;;-147.86;53.04;47802.08;105668;1254;72512;-48
2024/03/12 12:09:08;;;;;;;29.00;12.60;;;;;;;-147.86;52.27;47791.49;105712;1260;59658;-47
2024/03/12 12:11:37;;;;;;;27.70;13.30;;;;;;;-147.86;52.56;47794.24;105684;1260;61079;-49
2024/03/12 12:14:06;;;;;;;28.80;12.60;;;;;;;-147.86;52.08;47797.38;105640;1259;72685;-49
2024/03/12 12:16:35;;;;;;;31.30;12.70;;;;;;;-147.86;52.32;47789.54;105631;1260;63557;-50
2024/03/12 12:19:07;;;;;;;26.60;12.20;;;;;;;-147.86;52.52;47791.49;105658;1262;74909;-49
2024/03/12 12:21:36;;;;;;;27.50;11.90;;;;;;;-147.86;52.09;47793.85;105548;1260;61512;-47
2024/03/12 12:24:07;;;;;;;29.80;12.40;;;;;;;-147.86;51.43;47784.44;105664;1261;59611;-49
2024/03/12 12:26:36;;;;;;;29.10;12.60;;;;;;;-147.86;51.49;47789.54;105596;1256;75125;-49
2024/03/12 12:29:04;;;;;;;23.10;12.20;;;;;;;-147.86;51.82;47800.12;105620;1260;67259;-49
2024/03/12 12:31:35;;;;;;;31.90;12.60;;;;;;;-147.86;51.89;47791.10;105602;1261;73351;-48
2024/03/12 12:34:05;;;;;;;26.00;12.50;;;;;;;-147.86;51.73;47791.49;105663;1255;61689;-47
2024/03/12 12:36:35;;;;;;;33.20;12.80;;;;;;;-147.86;51.42;47802.08;105634;1257;62282;-46
2024/03/12 12:39:04;;;;;;;26.50;13.10;;;;;;;-147.86;51.14;47802.48;105621;1260;73592;-49
2024/03/12 12:41:38;;;;;;;29.40;12.50;;;;;;;-147.86;50.71;47814.62;105598;1260;64999;-50
2024/03/12 12:44:15;;;;;;;25.20;11.70;;;;;;;-147.86;50.53;47822.07;105587;1259;73777;-48
2024/03/12 12:46:47;;;;;;;32.00;12.60;;;;;;;-147.86;48.67;47825.99;105567;1260;60572;-46
2024/03/12 12:49:16;;;;;;;30.80;11.00;;;;;;;-147.86;48.18;47848.73;105666;1256;62504;-48
2024/03/12 12:51:47;;;;;;;25.80;12.00;;;;;;;-147.86;48.11;47872.65;105551;1261;73324;-46
2024/03/12 12:54:17;;;;;;;28.90;11.10;;;;;;;-147.86;48.09;47893.03;105642;1260;64044;-50
2024/03/12 12:56:49;;;;;;;31.20;11.60;;;;;;;-147.86;48.13;47906.75;105593;1261;73217;-47
2024/03/12 12:59:19;;;;;;;28.00;11.50;;;;;;;-147.86;47.60;47926.36;105589;1260;61555;-50
2024/03/12 13:01:48;;;;;;;20.70;10.50;;;;;;;-147.86;47.86;47931.84;105648;1256;62167;-47
2024/03/12 13:04:27;;;;;;;33.30;10.40;;;;;;;-147.86;48.26;47943.61;105610;1256;72083;-46
2024/03/12 13:06:56;;;;;;;30.80;10.80;;;;;;;-147.86;47.19;47945.17;105644;1261;66232;-46
2024/03/12 13:09:35;;;;;;;25.90;11.50;;;;;;;-147.86;46.56;47957.72;105607;1256;74649;-48
2024/03/12 13:12:07;;;;;;;27.90;10.90;;;;;;;-147.86;46.76;47970.66;105581;1260;59844;-48
2024/03/12 13:14:36;;;;;;;31.10;10.90;;;;;;;-147.86;47.11;47985.16;105608;1260;60861;-48
2024/03/12 13:17:08;;;;;;;39.00;11.10;;;;;;;-147.86;47.58;47982.81;105592;1261;71715;-49
2024/03/12 13:19:37;;;;;;;27.40;11.70;;;;;;;-147.86;47.83;47994.57;105620;1260;66391;-48
2024/03/12 13:22:04;;;;;;;21.40;11.00;;;;;;;-147.86;47.95;47998.49;105583;1256;72963;-47
2024/03/12 13:24:43;;;;;;;39.40;11.10;;;;;;;-147.86;47.91;47996.93;105555;1256;60492;-48
2024/03/12 14:18:09;;;;;;;31.20;12.50;;;;;;;-147.86;48.94;47683.74;102829;1294;600825;-53
2024/03/12 14:20:37;;;;;;;28.90;11.50;;;;;;;-147.86;48.91;48000.06;105189;1264;59315;-45
2024/03/12 14:23:05;;;;;;;28.10;11.70;;;;;;;-147.86;49.11;48017.31;105206;1269;60552;-52
2024/03/12 14:25:33;;;;;;;22.40;10.90;;;;;;;-147.86;48.95;48013.00;105216;1269;72428;-51
2024/03/12 14:28:01;;;;;;;23.70;11.20;;;;;;;-147.86;48.80;48009.47;105181;1270;66153;-50
2024/03/12 14:30:29;;;;;;;32.70;11.10;;;;;;;-147.86;48.89;48000.45;105228;1270;72551;-50
2024/03/12 14:32:57;;;;;;;31.60;11.50;;;;;;;-147.86;48.75;48005.95;104854;1264;59376;-54
2024/03/12 14:35:25;;;;;;;21.90;10.00;;;;;;;-147.86;48.71;48015.35;105269;1267;59218;-52
2024/03/12 14:37:53;;;;;;;22.00;11.10;;;;;;;-147.86;48.96;48025.15;105219;1269;72713;-50
2024/03/12 14:40:21;;;;;;;21.70;10.80;;;;;;;-147.86;49.43;48011.43;105303;1266;62967;-53
2024/03/12 14:42:49;;;;;;;28.00;10.90;;;;;;;-147.86;49.74;48006.73;105750;1254;71810;-49
2024/03/12 14:45:17;;;;;;;21.70;11.30;;;;;;;-147.86;50.05;48011.04;105649;1257;61261;-46
2024/03/12 14:47:46;;;;;;;28.40;12.70;;;;;;;-147.86;50.27;48014.57;105710;1260;59625;-48
2024/03/12 14:50:14;;;;;;;25.70;10.80;;;;;;;-147.86;50.54;48003.59;105631;1260;72941;-47
2024/03/12 14:52:42;;;;;;;25.60;10.80;;;;;;;-147.86;50.58;48008.29;105689;1260;65074;-48
2024/03/12 14:55:10;;;;;;;25.60;10.60;;;;;;;-147.86;50.94;48007.51;105649;1259;74513;-47
2024/03/12 14:57:38;;;;;;;24.80;12.00;;;;;;;-147.86;51.15;47998.10;105684;1259;59851;-47
2024/03/12 15:00:09;;;;;;;29.10;12.00;;;;;;;-147.86;51.33;48002.80;105632;1254;60596;-47
2024/03/12 15:02:38;;;;;;;25.50;11.90;;;;;;;-147.86;51.66;47994.57;105699;1261;73334;-47
2024/03/12 15:05:10;;;;;;;27.10;12.40;;;;;;;-147.86;51.95;47993.40;105647;1254;67149;-48
2024/03/12 15:07:39;;;;;;;30.80;12.30;;;;;;;-147.86;52.29;47979.29;105639;1257;72232;-48
2024/03/12 15:10:10;;;;;;;22.90;11.90;;;;;;;-147.86;52.75;47976.14;105653;1260;59808;-48
2024/03/12 15:12:39;;;;;;;27.30;11.80;;;;;;;-147.86;53.04;47967.91;105713;1260;61435;-49
2024/03/12 15:15:10;;;;;;;33.20;11.90;;;;;;;-147.86;53.63;47976.93;105654;1255;73083;-48
2024/03/12 15:17:39;;;;;;;38.60;11.90;;;;;;;-147.86;54.20;47969.09;105696;1260;65037;-46
2024/03/12 15:20:14;;;;;;;24.00;11.40;;;;;;;-147.86;54.37;47958.11;105619;1263;72900;-47
2024/03/12 15:22:43;;;;;;;32.60;12.20;;;;;;;-147.86;54.57;47954.19;105649;1261;59828;-48
2024/03/12 15:25:11;;;;;;;29.10;10.00;;;;;;;-147.86;54.12;47955.76;105642;1262;59953;-46
2024/03/12 15:27:41;;;;;;;25.40;10.70;;;;;;;-147.86;54.31;47942.82;105633;1260;73210;-47
2024/03/12 15:30:11;;;;;;;23.70;10.50;;;;;;;-147.86;54.42;47947.52;105653;1270;67545;-48
2024/03/12 15:32:41;;;;;;;32.50;10.70;;;;;;;-147.86;54.25;47935.76;105953;1254;73944;-46
2024/03/12 15:35:10;;;;;;;18.60;10.60;;;;;;;-147.86;53.33;47936.16;105955;1257;59727;-46
2024/03/12 15:37:38;;;;;;;28.40;11.50;;;;;;;-147.86;53.40;47928.71;105953;1251;59866;-47
2024/03/12 15:40:08;;;;;;;37.00;10.60;;;;;;;-147.86;53.68;47933.80;105898;1251;73156;-47
2024/03/12 15:42:37;;;;;;;22.70;11.10;;;;;;;-147.86;53.69;47931.45;109677;1251;66824;-51
2024/03/12 15:45:12;;;;;;;27.10;11.10;;;;;;;-147.86;53.90;47926.75;109574;1251;73184;-52
2024/03/12 15:47:42;;;;;;;30.20;11.50;;;;;;;-147.86;53.40;47938.90;109622;1251;58602;-48
2024/03/12 15:50:12;;;;;;;25.20;10.20;;;;;;;-147.86;53.47;47914.99;109613;1251;59261;-47
2024/03/12 15:52:40;;;;;;;23.60;11.40;;;;;;;-147.86;53.57;47926.74;109648;1251;72941;-48
2024/03/12 15:55:09;;;;;;;33.70;11.00;;;;;;;-147.86;53.37;47918.91;109636;1251;64308;-48
2024/03/12 15:57:44;;;;;;;24.40;10.30;;;;;;;-147.86;53.36;47913.02;109618;1251;70979;-51
2024/03/12 16:00:13;;;;;;;25.40;10.60;;;;;;;-147.86;53.41;47924.00;109612;1251;57878;-51
2024/03/12 16:02:42;;;;;;;25.00;10.80;;;;;;;-147.86;53.56;47924.01;109630;1251;58589;-50
2024/03/12 16:05:10;;;;;;;25.50;11.00;;;;;;;-147.86;53.44;47906.36;109658;1251;74029;-47
2024/03/12 16:07:40;;;;;;;23.80;10.60;;;;;;;-147.86;53.50;47924.00;109615;1251;65617;-51
2024/03/12 16:10:09;;;;;;;20.90;10.30;;;;;;;-147.86;53.52;47907.93;109621;1251;74874;-50
2024/03/12 16:12:38;;;;;;;32.50;11.00;;;;;;;-147.86;53.19;47913.42;109636;1254;58593;-50
2024/03/12 16:18:34;;;;;;;30.00;10.20;;;;;;;-147.86;53.46;47630.02;103195;1287;601407;-48
2024/03/12 16:21:03;;;;;;;24.70;11.00;;;;;;;-147.86;53.38;47918.52;105189;1269;60155;-48
2024/03/12 16:23:31;;;;;;;34.60;10.80;;;;;;;-147.86;53.54;47900.09;105108;1270;60726;-49
2024/03/12 16:25:59;;;;;;;23.60;10.40;;;;;;;-147.86;53.58;47900.88;105081;1264;72493;-47
2024/03/12 16:28:27;;;;;;;28.60;11.20;;;;;;;-147.86;53.30;47902.83;105101;1265;63950;-49
2024/03/12 16:30:57;;;;;;;27.10;10.70;;;;;;;-147.86;53.27;47911.46;105110;1270;73010;-51
2024/03/12 16:33:25;;;;;;;25.00;10.90;;;;;;;-147.86;53.32;47902.44;104957;1266;59800;-46
2024/03/12 16:35:55;;;;;;;21.80;9.80;;;;;;;-147.86;53.00;47902.45;105392;1263;60302;-47
2024/03/12 16:38:23;;;;;;;23.10;9.30;;;;;;;-147.86;53.05;47900.87;105460;1263;71687;-49
2024/03/12 16:40:52;;;;;;;27.70;10.10;;;;;;;-147.86;53.06;47885.98;105482;1263;65548;-48
2024/03/12 16:43:20;;;;;;;24.90;10.20;;;;;;;-147.86;52.90;47892.64;105473;1263;71209;-49
2024/03/12 16:45:48;;;;;;;26.40;10.20;;;;;;;-147.86;52.82;47902.83;105394;1263;59628;-47
2024/03/12 16:48:16;;;;;;;25.70;10.20;;;;;;;-147.86;53.11;47891.07;105733;1255;60664;-49
2024/03/12 16:50:45;;;;;;;30.60;13.50;;;;;;;-147.86;53.46;47899.30;105714;1253;73129;-47
2024/03/12 16:53:14;;;;;;;32.70;12.10;;;;;;;-147.86;53.44;47896.95;105741;1253;64980;-48
2024/03/12 16:55:43;;;;;;;26.20;10.80;;;;;;;-147.86;53.39;47898.91;105705;1269;73730;-50
2024/03/12 16:58:11;;;;;;;30.20;10.70;;;;;;;-147.86;53.29;47885.59;105738;1260;59723;-47
2024/03/12 17:00:40;;;;;;;25.10;10.40;;;;;;;-147.86;53.02;47884.41;105690;1254;59733;-47
2024/03/12 17:03:09;;;;;;;25.00;10.40;;;;;;;-147.86;53.11;47893.42;105706;1259;74863;-47
2024/03/12 17:05:37;;;;;;;26.40;11.50;;;;;;;-147.86;52.65;47894.60;105703;1260;65398;-48
2024/03/12 17:08:05;;;;;;;26.80;11.70;;;;;;;-147.86;52.75;47877.35;105704;1260;74698;-45
2024/03/12 17:10:35;;;;;;;30.90;11.50;;;;;;;-147.86;52.87;47888.72;105755;1259;60331;-48
2024/03/12 17:13:03;;;;;;;33.30;11.90;;;;;;;-147.86;52.76;47886.76;105713;1260;59746;-47
2024/03/12 17:15:32;;;;;;;24.90;11.40;;;;;;;-147.86;52.23;47885.59;105698;1255;73746;-48
2024/03/12 17:18:01;;;;;;;30.50;11.70;;;;;;;-147.86;52.22;47885.58;109358;1254;66602;-47
2024/03/12 17:20:32;;;;;;;27.60;11.50;;;;;;;-147.86;52.24;47890.68;109322;1254;73110;-46
2024/03/12 17:23:01;;;;;;;24.20;11.80;;;;;;;-147.86;52.20;47890.68;109184;1258;61160;-48
2024/03/12 17:25:28;;;;;;;26.60;11.20;;;;;;;-147.86;52.08;47889.11;109287;1254;59292;-46
2024/03/12 17:27:57;;;;;;;23.00;11.50;;;;;;;-147.86;52.34;47893.82;109290;1254;72817;-50
2024/03/12 17:30:26;;;;;;;30.40;11.80;;;;;;;-147.86;52.36;47891.07;109279;1254;64295;-48
2024/03/12 17:32:55;;;;;;;25.10;12.40;;;;;;;-147.86;52.46;47895.77;109279;1254;73484;-50
2024/03/12 17:35:23;;;;;;;32.00;11.80;;;;;;;-147.86;52.52;47895.78;109185;1254;58431;-49
2024/03/12 17:37:52;;;;;;;25.80;11.70;;;;;;;-147.86;52.63;47891.85;109295;1254;59245;-48
2024/03/12 17:40:22;;;;;;;30.30;12.30;;;;;;;-147.86;52.58;47878.13;109275;1254;72644;-49
2024/03/12 17:42:50;;;;;;;21.10;11.70;;;;;;;-147.86;52.35;47890.68;109229;1254;65619;-50
2024/03/12 17:45:18;;;;;;;31.00;12.60;;;;;;;-147.86;52.11;47876.96;109256;1255;72274;-49
2024/03/12 17:47:50;;;;;;;30.80;12.70;;;;;;;-147.86;52.01;47881.27;109282;1254;60248;-51
2024/03/12 17:50:22;;;;;;;31.50;11.80;;;;;;;-147.86;51.86;47883.62;109312;1254;61906;-47
2024/03/12 17:52:51;;;;;;;25.50;11.80;;;;;;;-147.86;51.77;47892.25;109232;1254;74938;-47
2024/03/12 17:55:21;;;;;;;29.50;12.20;;;;;;;-147.86;51.85;47882.45;109295;1254;64589;-48
2024/03/12 17:57:50;;;;;;;26.10;11.50;;;;;;;-147.86;52.10;47878.92;109297;1254;72476;-51
2024/03/12 18:00:20;;;;;;;36.00;12.30;;;;;;;-147.86;52.31;47874.61;109122;1254;58240;-48
2024/03/12 18:02:49;;;;;;;28.20;10.90;;;;;;;-147.86;52.36;47881.27;109273;1254;58692;-49
2024/03/12 18:05:19;;;;;;;26.80;10.90;;;;;;;-147.86;52.78;47883.23;109268;1254;73607;-45
2024/03/12 18:07:48;;;;;;;29.80;12.40;;;;;;;-147.86;52.92;47876.57;109244;1261;66332;-48
2024/03/12 18:10:19;;;;;;;32.30;11.80;;;;;;;-147.86;52.81;47875.79;109303;1254;70821;-50
2024/03/12 18:12:48;;;;;;;35.60;12.90;;;;;;;-147.86;52.69;47880.48;109269;1254;59341;-49
2024/03/12 18:18:21;;;;;;;26.60;11.60;;;;;;;-147.86;52.40;47609.63;102934;1288;601503;-48
2024/03/12 18:20:49;;;;;;;27.20;12.20;;;;;;;-147.86;52.18;47880.49;104857;1269;59549;-47
2024/03/12 18:23:17;;;;;;;29.70;11.90;;;;;;;-147.86;52.12;47872.64;104900;1264;60715;-48
2024/03/12 18:25:45;;;;;;;29.10;12.40;;;;;;;-147.86;52.15;47870.29;105034;1264;72983;-46
2024/03/12 18:28:14;;;;;;;40.40;12.60;;;;;;;-147.86;52.25;47869.90;104896;1269;64882;-47
2024/03/12 18:30:42;;;;;;;36.00;13.30;;;;;;;-147.86;52.25;47877.74;105057;1270;73265;-46
2024/03/12 18:33:10;;;;;;;29.10;12.70;;;;;;;-147.86;52.45;47871.86;104802;1262;511068;-46
2024/03/12 18:35:38;;;;;;;32.90;12.30;;;;;;;-147.86;52.69;47872.25;105187;1263;59883;-48
2024/03/12 18:38:07;;;;;;;23.00;12.70;;;;;;;-147.86;52.63;47873.43;105191;1264;73072;-47
2024/03/12 18:40:35;;;;;;;34.20;12.60;;;;;;;-147.86;52.58;47868.73;105158;1267;65648;-48
2024/03/12 18:43:03;;;;;;;28.10;12.90;;;;;;;-147.86;52.61;47873.04;105201;1263;72590;-48
2024/03/12 18:45:31;;;;;;;27.00;12.80;;;;;;;-147.86;52.45;47867.94;105167;1269;59746;-48
2024/03/12 18:47:59;;;;;;;28.00;12.60;;;;;;;-147.86;52.66;47877.74;105195;1268;60125;-45
2024/03/12 18:50:27;;;;;;;27.70;12.40;;;;;;;-147.86;52.93;47867.16;105197;1267;73365;-46
2024/03/12 18:52:56;;;;;;;32.20;12.80;;;;;;;-147.86;53.09;47868.73;105239;1266;65510;-48
2024/03/12 18:55:26;;;;;;;40.10;13.20;;;;;;;-147.86;53.17;47857.75;105205;1269;73306;-47
2024/03/12 18:57:56;;;;;;;35.60;13.20;;;;;;;-147.86;52.96;47853.43;105190;1263;60205;-47
2024/03/12 19:00:26;;;;;;;28.90;13.60;;;;;;;-147.86;53.25;47867.16;105232;1269;59627;-45
2024/03/12 19:02:54;;;;;;;28.10;12.10;;;;;;;-147.86;53.54;47852.26;105174;1266;72058;-45
2024/03/12 19:05:23;;;;;;;36.40;13.30;;;;;;;-147.86;53.52;47860.10;105179;1264;65052;-45
2024/03/12 19:07:54;;;;;;;44.70;13.10;;;;;;;-147.86;53.21;47847.16;105195;1264;75043;-48
2024/03/12 19:10:28;;;;;;;26.70;12.50;;;;;;;-147.86;53.22;47858.93;105272;1263;59691;-47